CheckWX is a tool to help pilots better visualize weather data.  It is not intended as a substitute for an official pre-flight weather briefing.

16:10:44 UTC

HTZA TAF
Abeid Amani Karume International Airport
Zanzibar, Tanzania
HTZA 181100Z 1812/1912 12015KT 9999 BKN018 SCT080 BECMG 1818/1820 00000KT PROB30 TEMPO 1901/1906 21010KT 5000 RA BKN012 BKN070

Oct-18@
12:00 UTC

Oct-18 @ 12:00 UTC

Oct-18@
18:00 UTC

Oct-18 @ 18:00 UTC

HTZA 181100Z 1812/1912 12015KT 9999 BKN018 SCT080
Wind
  • 120° at 15 KTS
Cloud Levels
  • Broken at 1,800' AGL
  • Scattered at 8,000' AGL

Oct-18@
18:00 UTC

Oct-18 @ 18:00 UTC

Oct-19@
12:00 UTC

Oct-19 @ 12:00 UTC

BECMG 1818/1820 00000KT

Becoming

Becoming Conditions expected by Fri, Oct 18, 2019 @ 20:00 UTC

Cloud Levels
  • Broken at 1,800' AGL
  • Scattered at 8,000' AGL

Oct-19@
01:00 UTC

Oct-19 @ 01:00 UTC

Oct-19@
06:00 UTC

Oct-19 @ 06:00 UTC

PROB30 TEMPO 1901/1906 21010KT 5000 RA BKN012 BKN070

Temporary - 30% Likelihood

Temporary - 30% Likelihood during this time.

Wind
  • 210° at 10 KTS
Conditions
Rain
Cloud Levels
  • Broken at 1,200' AGL
  • Broken at 7,000' AGL